createdAt,value
2023-01-26T00:02:09.440Z,26.17
2023-01-26T00:04:37.304Z,30.05
2023-01-26T00:07:06.516Z,26.65
2023-01-26T00:09:34.399Z,33.80
2023-01-26T00:12:02.369Z,29.25
2023-01-26T00:14:49.638Z,29.60
2023-01-26T00:17:25.912Z,25.85
2023-01-26T00:19:56.226Z,25.55
2023-01-26T00:22:26.403Z,22.33
2023-01-26T00:24:54.635Z,22.90
2023-01-26T00:27:22.548Z,26.35
2023-01-26T00:29:50.891Z,19.52
2023-01-26T00:32:18.789Z,19.08
2023-01-26T00:34:46.744Z,22.17
2023-01-26T00:37:14.593Z,19.83
2023-01-26T00:39:43.829Z,22.38
2023-01-26T00:42:13.910Z,24.33
2023-01-26T00:44:44.017Z,23.75
2023-01-26T00:47:13.891Z,22.40
2023-01-26T00:49:41.753Z,24.85
2023-01-26T00:52:09.641Z,27.35
2023-01-26T00:54:37.531Z,25.98
2023-01-26T00:57:06.844Z,27.67
2023-01-26T00:59:34.860Z,25.48
2023-01-26T01:02:03.646Z,32.33
2023-01-26T01:04:31.755Z,27.60
2023-01-26T01:07:01.807Z,30.02
2023-01-26T01:09:29.725Z,30.73
2023-01-26T01:11:57.625Z,32.85
2023-01-26T01:14:26.979Z,26.58
2023-01-26T01:16:54.922Z,26.52
2023-01-26T01:19:22.899Z,26.42
2023-01-26T01:21:50.844Z,30.02
2023-01-26T01:24:18.788Z,31.13
2023-01-26T01:26:46.820Z,33.05
2023-01-26T01:29:15.354Z,29.70
2023-01-26T01:31:44.865Z,30.92
2023-01-26T01:34:12.918Z,29.15
2023-01-26T01:36:41.280Z,25.30
2023-01-26T01:39:09.316Z,29.52
2023-01-26T01:41:37.189Z,28.23
2023-01-26T01:44:20.535Z,22.58
2023-01-26T01:49:29.140Z,30.55
2023-01-26T01:52:03.567Z,25.25
2023-01-26T01:54:35.437Z,27.65
2023-01-26T01:57:15.725Z,26.33
2023-01-26T01:59:47.209Z,25.48
2023-01-26T02:02:16.841Z,26.27
2023-01-26T02:04:45.360Z,29.02
2023-01-26T02:07:13.634Z,23.05
2023-01-26T02:10:02.367Z,23.98
2023-01-26T02:12:32.276Z,23.77
2023-01-26T02:15:01.605Z,22.45
2023-01-26T02:17:30.895Z,28.80
2023-01-26T02:20:06.252Z,27.58
2023-01-26T02:22:42.609Z,31.00
2023-01-26T02:25:19.007Z,25.33
2023-01-26T02:27:49.064Z,26.23
2023-01-26T02:30:18.519Z,37.40
2023-01-26T02:32:47.755Z,30.92
2023-01-26T02:35:16.358Z,33.60
2023-01-26T02:37:44.271Z,34.10
2023-01-26T02:40:21.343Z,31.15
2023-01-26T02:42:54.214Z,31.65
2023-01-26T02:45:23.252Z,26.25
2023-01-26T02:47:51.115Z,35.67
2023-01-26T02:50:19.663Z,37.17
2023-01-26T02:52:47.647Z,31.10
2023-01-26T02:55:25.144Z,40.25
2023-01-26T02:57:56.380Z,31.42
2023-01-26T03:00:26.951Z,34.90
2023-01-26T03:02:57.648Z,34.20
2023-01-26T03:05:27.137Z,36.33
2023-01-26T03:07:56.727Z,34.72
2023-01-26T03:10:28.762Z,37.72
2023-01-26T03:12:58.704Z,35.08
2023-01-26T03:15:42.723Z,43.15
2023-01-26T03:18:29.792Z,33.13
2023-01-26T03:21:17.766Z,29.02
2023-01-26T03:24:03.534Z,29.92
2023-01-26T03:26:49.416Z,29.13
2023-01-26T03:29:21.168Z,27.48
2023-01-26T03:31:49.757Z,29.48
2023-01-26T03:34:18.518Z,29.67
2023-01-26T03:36:48.117Z,28.05
2023-01-26T03:39:32.236Z,26.23
2023-01-26T03:42:18.584Z,27.57
2023-01-26T03:45:05.579Z,23.92
2023-01-26T03:47:51.346Z,25.95
2023-01-26T03:50:37.624Z,26.55
2023-01-26T03:53:32.085Z,24.77
2023-01-26T03:56:18.056Z,27.30
2023-01-26T03:58:47.793Z,28.52
2023-01-26T04:01:20.117Z,24.10
2023-01-26T04:04:09.948Z,26.40
2023-01-26T04:06:57.643Z,23.77
2023-01-26T04:09:25.723Z,22.98
2023-01-26T04:11:53.727Z,21.85
2023-01-26T04:14:49.342Z,24.15
2023-01-26T04:17:39.379Z,21.27
2023-01-26T04:20:26.293Z,23.77
2023-01-26T04:22:54.231Z,21.08
2023-01-26T04:25:23.192Z,21.17
2023-01-26T04:27:51.566Z,18.25
2023-01-26T04:30:20.715Z,25.42
2023-01-26T04:32:52.149Z,21.50
2023-01-26T04:35:20.086Z,19.77
2023-01-26T04:37:49.171Z,20.85
2023-01-26T04:40:17.825Z,17.38
2023-01-26T04:42:47.347Z,22.45
2023-01-26T04:45:15.284Z,17.40
2023-01-26T04:47:45.235Z,20.08
2023-01-26T04:50:15.200Z,18.58
2023-01-26T04:52:43.303Z,21.98
2023-01-26T04:55:11.518Z,26.77
2023-01-26T04:57:42.279Z,22.42
2023-01-26T05:00:13.096Z,29.67
2023-01-26T05:02:42.149Z,24.10
2023-01-26T05:05:11.049Z,29.30
2023-01-26T05:07:41.085Z,24.90
2023-01-26T05:10:11.972Z,38.70
2023-01-26T05:12:53.957Z,26.75
2023-01-26T05:15:42.063Z,32.70
2023-01-26T05:18:17.378Z,31.13
2023-01-26T05:21:06.160Z,27.65
2023-01-26T05:23:45.140Z,31.33
2023-01-26T05:26:39.019Z,31.88
2023-01-26T05:31:39.896Z,29.40
2023-01-26T05:34:08.025Z,27.45
2023-01-26T05:36:37.647Z,27.55
2023-01-26T05:39:07.277Z,32.85
2023-01-26T05:41:35.097Z,24.13
2023-01-26T05:44:21.385Z,25.08
2023-01-26T05:46:53.884Z,29.30
2023-01-26T05:49:21.879Z,29.40
2023-01-26T05:51:51.105Z,27.27
2023-01-26T05:54:20.578Z,28.20
2023-01-26T05:56:48.527Z,27.20
2023-01-26T05:59:16.591Z,33.70
2023-01-26T06:01:44.791Z,23.98
2023-01-26T06:04:13.183Z,23.23
2023-01-26T06:06:50.228Z,24.30
2023-01-26T06:09:46.115Z,18.77
2023-01-26T06:12:21.581Z,20.80
2023-01-26T06:15:02.736Z,22.58
2023-01-26T06:17:38.411Z,21.83
2023-01-26T06:20:11.346Z,20.00
2023-01-26T06:22:39.890Z,16.80
2023-01-26T06:25:10.136Z,23.67
2023-01-26T06:27:42.042Z,25.02
2023-01-26T06:30:17.179Z,18.70
2023-01-26T06:32:48.479Z,21.20
2023-01-26T06:35:16.788Z,15.63
2023-01-26T06:37:45.466Z,21.90
2023-01-26T06:40:15.238Z,21.80
2023-01-26T06:42:48.664Z,19.27
2023-01-26T06:45:17.880Z,20.42
2023-01-26T06:47:47.238Z,25.58
2023-01-26T06:50:16.424Z,24.83
2023-01-26T06:52:47.968Z,26.10
2023-01-26T06:55:41.739Z,22.77
2023-01-26T06:58:28.049Z,29.23
2023-01-26T07:00:58.027Z,23.63
2023-01-26T07:03:30.039Z,22.42
2023-01-26T07:05:57.905Z,23.08
2023-01-26T07:08:25.915Z,28.77
2023-01-26T07:10:55.121Z,28.45
2023-01-26T07:13:23.015Z,29.00
2023-01-26T07:15:50.861Z,24.90
2023-01-26T07:18:18.752Z,17.92
2023-01-26T07:20:46.736Z,21.98
2023-01-26T07:23:14.624Z,24.58
2023-01-26T07:25:44.535Z,17.98
2023-01-26T07:28:13.771Z,22.38
2023-01-26T07:30:41.812Z,18.50
2023-01-26T07:33:09.762Z,23.38
2023-01-26T07:35:37.665Z,22.67
2023-01-26T07:38:06.049Z,18.42
2023-01-26T07:40:34.320Z,18.85
2023-01-26T07:43:02.243Z,21.17
2023-01-26T07:45:52.495Z,22.38
2023-01-26T07:48:21.819Z,20.50
2023-01-26T07:50:50.060Z,22.63
2023-01-26T07:53:21.253Z,21.58
2023-01-26T07:55:49.596Z,16.48
2023-01-26T07:58:18.543Z,22.50
2023-01-26T08:00:47.786Z,15.00
2023-01-26T08:03:17.067Z,19.10
2023-01-26T08:05:44.939Z,22.88
2023-01-26T08:08:12.968Z,20.48
2023-01-26T08:10:40.789Z,23.38
2023-01-26T08:13:08.910Z,20.55
2023-01-26T08:15:36.771Z,19.63
2023-01-26T08:18:05.106Z,20.90
2023-01-26T08:20:34.388Z,22.35
2023-01-26T08:23:02.284Z,21.95
2023-01-26T08:25:31.623Z,18.70
2023-01-26T08:27:59.523Z,19.65
2023-01-26T08:30:27.414Z,20.15
2023-01-26T08:32:55.363Z,18.95
2023-01-26T08:35:23.218Z,23.38
2023-01-26T08:37:52.551Z,16.40
2023-01-26T08:40:20.617Z,18.48
2023-01-26T08:42:48.507Z,19.85
2023-01-26T08:45:19.843Z,20.38
2023-01-26T08:47:50.465Z,18.58
2023-01-26T08:50:18.605Z,22.23
2023-01-26T08:52:46.743Z,17.77
2023-01-26T08:55:16.479Z,19.27
2023-01-26T08:57:47.239Z,20.52
2023-01-26T09:00:16.790Z,21.30
2023-01-26T09:02:44.937Z,22.70
2023-01-26T09:05:12.877Z,20.50
2023-01-26T09:07:40.735Z,16.05
2023-01-26T09:10:10.720Z,22.20
2023-01-26T09:12:41.223Z,18.15
2023-01-26T09:15:10.333Z,14.55
2023-01-26T09:17:38.488Z,20.80
2023-01-26T09:20:08.419Z,16.73
2023-01-26T09:22:36.471Z,15.88
2023-01-26T09:25:05.129Z,14.85
2023-01-26T09:27:33.053Z,20.33
2023-01-26T09:30:02.770Z,17.92
2023-01-26T09:32:31.041Z,21.08
2023-01-26T09:34:58.961Z,14.13
2023-01-26T09:37:26.982Z,18.85
2023-01-26T09:39:54.878Z,19.77
2023-01-26T09:42:42.094Z,16.55
2023-01-26T09:45:28.641Z,19.90
2023-01-26T09:48:25.384Z,15.98
2023-01-26T09:50:59.124Z,16.92
2023-01-26T09:53:29.938Z,15.23
2023-01-26T09:55:57.882Z,15.13
2023-01-26T09:58:35.681Z,13.02
2023-01-26T10:01:06.684Z,15.93
2023-01-26T10:03:40.543Z,18.42
2023-01-26T10:06:17.322Z,16.90
2023-01-26T10:09:15.731Z,17.10
2023-01-26T10:11:47.768Z,18.27
2023-01-26T10:14:22.512Z,19.05
2023-01-26T10:16:54.262Z,24.85
2023-01-26T10:19:33.965Z,22.35
2023-01-26T10:22:07.367Z,23.02
2023-01-26T10:24:35.709Z,20.73
2023-01-26T10:27:03.685Z,19.70
2023-01-26T10:29:31.539Z,19.67
2023-01-26T10:32:00.808Z,24.67
2023-01-26T10:34:29.793Z,22.95
2023-01-26T10:37:03.489Z,20.60
2023-01-26T10:39:31.372Z,19.25
2023-01-26T10:42:01.545Z,21.85
2023-01-26T10:44:35.298Z,25.67
2023-01-26T10:47:07.472Z,19.70
2023-01-26T10:49:35.340Z,21.70
2023-01-26T10:52:09.644Z,24.42
2023-01-26T10:54:39.589Z,24.90
2023-01-26T10:57:18.593Z,21.98
2023-01-26T10:59:54.732Z,35.03
2023-01-26T11:02:28.279Z,25.08
2023-01-26T11:05:16.341Z,24.20
2023-01-26T11:07:45.299Z,23.60
2023-01-26T11:10:26.867Z,22.15
2023-01-26T11:13:16.586Z,18.80
2023-01-26T11:15:47.693Z,20.65
2023-01-26T11:18:37.181Z,19.65
2023-01-26T11:21:11.502Z,21.05
2023-01-26T11:23:50.847Z,24.13
2023-01-26T11:26:32.852Z,17.95
2023-01-26T11:29:18.766Z,17.23
2023-01-26T11:31:58.509Z,21.50
2023-01-26T11:34:35.350Z,19.60
2023-01-26T11:37:34.234Z,20.30
2023-01-26T11:40:18.637Z,23.00
2023-01-26T11:42:58.107Z,18.27
2023-01-26T11:45:34.180Z,19.15
2023-01-26T11:48:18.252Z,20.42
2023-01-26T11:50:54.221Z,22.75
2023-01-26T11:53:46.532Z,16.88
2023-01-26T11:56:26.495Z,17.48
2023-01-26T11:58:59.506Z,17.40
2023-01-26T12:01:31.898Z,21.02
2023-01-26T12:03:59.806Z,21.48
2023-01-26T12:06:37.471Z,19.75
2023-01-26T12:09:10.731Z,18.83
2023-01-26T12:11:43.093Z,17.33
2023-01-26T12:14:19.879Z,18.23
2023-01-26T12:17:16.886Z,20.23
2023-01-26T12:19:53.500Z,19.83
2023-01-26T12:22:29.869Z,16.92
2023-01-26T12:25:28.755Z,16.63
2023-01-26T12:27:59.988Z,17.15
2023-01-26T12:30:37.855Z,17.63
2023-01-26T12:33:06.330Z,23.85
2023-01-26T12:35:48.047Z,23.95
2023-01-26T12:38:24.343Z,17.45
2023-01-26T12:41:04.842Z,16.15
2023-01-26T12:43:46.948Z,13.77
2023-01-26T12:46:16.342Z,13.98
2023-01-26T12:48:49.939Z,17.02
2023-01-26T12:51:24.366Z,18.40
2023-01-26T12:53:59.938Z,15.70
2023-01-26T12:56:32.998Z,17.13
2023-01-26T12:59:06.670Z,14.13
2023-01-26T13:01:40.768Z,13.90
2023-01-26T13:04:12.380Z,19.30
2023-01-26T13:06:40.572Z,11.05
2023-01-26T13:09:22.910Z,12.45
2023-01-26T13:11:53.611Z,12.85
2023-01-26T13:14:26.731Z,12.80
2023-01-26T13:16:55.176Z,13.75
2023-01-26T13:19:37.554Z,11.02
2023-01-26T13:22:25.529Z,13.00
2023-01-26T13:24:59.700Z,15.65
2023-01-26T13:27:33.627Z,14.25
2023-01-26T13:30:02.031Z,15.13
2023-01-26T13:33:05.446Z,12.85
2023-01-26T13:35:34.550Z,11.60
2023-01-26T13:38:11.691Z,12.48
2023-01-26T13:40:43.832Z,14.18
2023-01-26T13:43:26.599Z,9.80
2023-01-26T13:46:12.438Z,12.60
2023-01-26T13:48:46.455Z,13.18
2023-01-26T13:51:19.991Z,10.52
2023-01-26T13:53:57.376Z,14.02
2023-01-26T13:56:30.024Z,12.93
2023-01-26T13:59:10.799Z,11.40
2023-01-26T14:01:43.706Z,14.25
2023-01-26T14:04:16.305Z,12.95
2023-01-26T14:06:48.572Z,18.77
2023-01-26T14:09:17.265Z,15.07
2023-01-26T14:11:55.149Z,14.90
2023-01-26T14:14:26.806Z,16.20
2023-01-26T14:16:55.582Z,18.63
2023-01-26T14:19:24.435Z,15.93
2023-01-26T14:21:54.982Z,16.10
2023-01-26T14:24:27.505Z,17.77
2023-01-26T14:26:57.463Z,14.43
2023-01-26T14:29:31.232Z,17.35
2023-01-26T14:32:16.783Z,15.63
2023-01-26T14:34:53.531Z,19.58
2023-01-26T14:37:21.873Z,16.02
2023-01-26T14:39:51.304Z,20.60
2023-01-26T14:42:22.453Z,18.15
2023-01-26T14:44:50.599Z,20.23
2023-01-26T14:47:24.385Z,18.35
2023-01-26T14:50:01.812Z,16.92
2023-01-26T14:52:34.788Z,16.08
2023-01-26T14:55:07.507Z,20.42
2023-01-26T14:57:37.174Z,17.88
2023-01-26T15:00:10.189Z,14.05
2023-01-26T15:05:29.143Z,21.77
2023-01-26T15:08:00.026Z,19.73
2023-01-26T15:10:34.684Z,20.92
2023-01-26T15:13:08.008Z,20.75
2023-01-26T15:15:38.914Z,18.58
2023-01-26T15:18:18.135Z,24.17
2023-01-26T15:20:51.031Z,20.65
2023-01-26T15:23:28.365Z,23.45
2023-01-26T15:25:57.164Z,23.25
2023-01-26T15:28:27.272Z,23.30
2023-01-26T15:30:57.559Z,26.67
2023-01-26T15:33:50.373Z,26.02
2023-01-26T15:36:30.195Z,32.07
2023-01-26T15:39:01.935Z,22.95
2023-01-26T15:41:31.986Z,26.20
2023-01-26T15:44:01.461Z,29.80
2023-01-26T15:46:31.500Z,27.85
2023-01-26T15:48:59.743Z,22.38
2023-01-26T15:51:33.129Z,28.60
2023-01-26T15:56:29.321Z,26.98
2023-01-26T15:58:57.218Z,25.20
2023-01-26T16:01:26.672Z,30.67
2023-01-26T16:03:54.766Z,32.80
2023-01-26T16:06:27.641Z,25.50
2023-01-26T16:08:57.093Z,30.58
2023-01-26T16:11:29.805Z,29.40
2023-01-26T16:14:03.534Z,30.35
2023-01-26T16:16:33.959Z,30.13
2023-01-26T16:19:02.199Z,28.05
2023-01-26T16:21:40.739Z,28.25
2023-01-26T16:24:11.128Z,33.10
2023-01-26T16:26:39.687Z,31.50
2023-01-26T16:29:08.060Z,32.13
2023-01-26T16:31:37.516Z,32.08
2023-01-26T16:34:05.945Z,30.27
2023-01-26T16:36:33.956Z,33.25
2023-01-26T16:39:01.873Z,30.90
2023-01-26T16:41:32.086Z,34.88
2023-01-26T16:44:01.862Z,31.35
2023-01-26T16:46:31.235Z,33.88
2023-01-26T16:49:04.125Z,29.10
2023-01-26T16:51:37.528Z,32.83
2023-01-26T16:54:05.936Z,31.95
2023-01-26T16:56:33.778Z,27.50
2023-01-26T16:59:01.689Z,28.88
2023-01-26T17:01:34.332Z,28.20
2023-01-26T17:04:04.317Z,31.55
2023-01-26T17:06:32.472Z,28.42
2023-01-26T17:09:00.484Z,35.15
2023-01-26T17:11:30.281Z,25.50
2023-01-26T17:13:59.330Z,36.33
2023-01-26T17:16:32.051Z,32.08
2023-01-26T17:19:00.401Z,32.58
2023-01-26T17:21:29.775Z,30.05
2023-01-26T17:23:58.938Z,34.13
2023-01-26T17:26:27.122Z,35.55
2023-01-26T17:28:56.618Z,34.25
2023-01-26T17:31:25.269Z,32.75
2023-01-26T17:33:53.561Z,38.92
2023-01-26T17:36:22.031Z,34.95
2023-01-26T17:38:51.272Z,35.85
2023-01-26T17:41:19.382Z,36.45
2023-01-26T17:43:48.124Z,32.25
2023-01-26T17:46:18.521Z,34.70
2023-01-26T17:48:47.276Z,35.20
2023-01-26T17:51:17.512Z,34.58
2023-01-26T17:53:47.066Z,35.97
2023-01-26T17:56:18.073Z,33.50
2023-01-26T17:58:49.498Z,35.90
2023-01-26T18:01:17.724Z,35.00
2023-01-26T18:03:47.049Z,28.40
2023-01-26T18:06:15.254Z,29.30
2023-01-26T18:08:43.630Z,39.95
2023-01-26T18:11:13.395Z,35.78
2023-01-26T18:13:43.256Z,39.42
2023-01-26T18:16:15.094Z,35.83
2023-01-26T18:18:43.074Z,39.85
2023-01-26T18:21:12.751Z,38.03
2023-01-26T18:23:40.784Z,36.88
2023-01-26T18:26:08.623Z,35.65
2023-01-26T18:28:36.496Z,36.63
2023-01-26T18:31:11.368Z,35.75
2023-01-26T18:33:39.785Z,39.47
2023-01-26T18:36:11.853Z,42.78
2023-01-26T18:38:40.255Z,31.40
2023-01-26T18:41:12.222Z,35.33
2023-01-26T18:43:40.916Z,36.53
2023-01-26T18:46:11.817Z,30.42
2023-01-26T18:48:39.796Z,32.00
2023-01-26T18:51:08.654Z,31.70
2023-01-26T18:53:38.635Z,30.00
2023-01-26T18:56:09.167Z,30.10
2023-01-26T18:58:38.143Z,33.28
2023-01-26T19:01:09.761Z,31.98
2023-01-26T19:03:41.613Z,35.22
2023-01-26T19:06:10.225Z,31.05
2023-01-26T19:08:40.265Z,32.13
2023-01-26T19:11:09.322Z,35.65
2023-01-26T19:13:41.925Z,30.95
2023-01-26T19:16:10.317Z,32.88
2023-01-26T19:18:39.561Z,38.92
2023-01-26T19:21:07.400Z,35.95
2023-01-26T19:23:37.517Z,37.95
2023-01-26T19:26:10.966Z,31.40
2023-01-26T19:28:40.905Z,38.28
2023-01-26T19:31:09.559Z,40.85
2023-01-26T19:33:39.212Z,41.35
2023-01-26T19:36:08.685Z,36.45
2023-01-26T19:38:39.398Z,40.20
2023-01-26T19:41:07.704Z,41.35
2023-01-26T19:43:35.998Z,44.30
2023-01-26T19:46:05.689Z,39.65
2023-01-26T19:48:33.820Z,39.13
2023-01-26T19:51:05.401Z,41.80
2023-01-26T19:53:33.839Z,39.28
2023-01-26T19:56:07.058Z,46.13
2023-01-26T19:58:35.564Z,41.67
2023-01-26T20:01:05.291Z,37.88
2023-01-26T20:03:33.312Z,38.47
2023-01-26T20:06:01.450Z,33.67
2023-01-26T20:08:31.529Z,39.50
2023-01-26T20:11:10.200Z,36.05
2023-01-26T20:13:38.548Z,37.00
2023-01-26T20:16:08.197Z,39.30
2023-01-26T20:18:36.447Z,38.80
2023-01-26T20:21:06.518Z,41.50
2023-01-26T20:23:36.533Z,35.17
2023-01-26T20:26:06.103Z,36.45
2023-01-26T20:28:34.164Z,36.38
2023-01-26T20:31:07.576Z,32.15
2023-01-26T20:33:36.250Z,34.50
2023-01-26T20:36:07.461Z,34.25
2023-01-26T20:38:37.264Z,38.78
2023-01-26T20:41:08.976Z,32.67
2023-01-26T20:43:39.601Z,37.85
2023-01-26T20:46:11.591Z,33.47
2023-01-26T20:48:39.936Z,34.42
2023-01-26T20:51:13.535Z,31.98
2023-01-26T20:53:43.367Z,31.00
2023-01-26T20:56:12.594Z,34.88
2023-01-26T20:58:42.529Z,33.75
2023-01-26T21:01:12.708Z,29.70
2023-01-26T21:03:41.640Z,34.75
2023-01-26T21:06:11.212Z,37.38
2023-01-26T21:08:39.818Z,34.88
2023-01-26T21:11:12.790Z,32.67
2023-01-26T21:13:42.274Z,28.15
2023-01-26T21:16:11.058Z,32.58
2023-01-26T21:18:38.940Z,35.97
2023-01-26T21:21:09.549Z,35.97
2023-01-26T21:23:37.508Z,40.15
2023-01-26T21:26:08.188Z,40.47
2023-01-26T21:28:37.480Z,28.60
2023-01-26T21:31:07.862Z,34.83
2023-01-26T21:33:39.102Z,31.63
2023-01-26T21:36:08.768Z,29.00
2023-01-26T21:38:40.128Z,37.58
2023-01-26T21:41:30.496Z,28.85
2023-01-26T21:44:01.703Z,34.38
2023-01-26T21:46:30.084Z,34.83
2023-01-26T21:48:58.182Z,35.80
2023-01-26T21:51:43.920Z,33.67
2023-01-26T21:54:11.895Z,27.95
2023-01-26T21:56:40.161Z,32.78
2023-01-26T21:59:11.292Z,30.23
2023-01-26T22:01:41.639Z,33.25
2023-01-26T22:04:12.332Z,33.85
2023-01-26T22:06:40.444Z,33.55
2023-01-26T22:09:12.110Z,34.65
2023-01-26T22:11:40.435Z,26.40
2023-01-26T22:14:15.209Z,28.88
2023-01-26T22:16:43.604Z,26.85
2023-01-26T22:19:12.491Z,32.35
2023-01-26T22:21:40.475Z,31.20
2023-01-26T22:24:11.731Z,30.88
2023-01-26T22:26:40.275Z,32.78
2023-01-26T22:29:11.453Z,35.30
2023-01-26T22:31:39.464Z,34.00
2023-01-26T22:34:07.416Z,36.47
2023-01-26T22:36:35.425Z,30.27
2023-01-26T22:39:03.420Z,22.80
2023-01-26T22:41:31.716Z,22.90
2023-01-26T22:44:00.916Z,22.27
2023-01-26T22:46:31.594Z,28.67
2023-01-26T22:49:00.471Z,22.65
2023-01-26T22:51:30.270Z,24.20
2023-01-26T22:54:00.233Z,30.75
2023-01-26T22:56:28.576Z,22.45
2023-01-26T22:59:00.149Z,22.10
2023-01-26T23:01:31.438Z,24.58
2023-01-26T23:04:01.000Z,26.35
2023-01-26T23:06:29.475Z,25.52
2023-01-26T23:08:58.270Z,25.83
2023-01-26T23:11:27.941Z,25.60
2023-01-26T23:13:57.196Z,26.10
2023-01-26T23:16:26.188Z,27.65
2023-01-26T23:18:58.157Z,20.25
2023-01-26T23:21:27.162Z,21.25
2023-01-26T23:23:55.144Z,23.40
2023-01-26T23:26:23.710Z,20.33
2023-01-26T23:28:51.574Z,23.10
2023-01-26T23:31:20.360Z,25.05
2023-01-26T23:33:48.762Z,24.23
2023-01-26T23:36:18.035Z,17.15
2023-01-26T23:38:46.379Z,21.00
2023-01-26T23:41:14.597Z,24.48
2023-01-26T23:43:42.753Z,24.83
2023-01-26T23:46:11.683Z,20.25
2023-01-26T23:48:39.970Z,18.13
2023-01-26T23:51:10.057Z,19.80
2023-01-26T23:53:39.782Z,20.90
2023-01-26T23:56:14.668Z,22.92
2023-01-26T23:58:42.990Z,22.10
